Time;durP1;ratioP1;P1;durP2;ratioP2;P2;SDS_P1;SDS_P2;PMS_P1;PMS_P2;Temp;Humidity;BMP_temperature;BMP_pressure;BME280_temperature;BME280_humidity;BME280_pressure;Samples;Min_cycle;Max_cycle;Signal;HPM_P1;HPM_P2
2023/10/03 00:04:35;;;;;;;12.80;9.63;;;21.00;77.30;;;;;;10827292;33;20007;-70
2023/10/03 00:10:41;;;;;;;11.73;10.40;;;21.00;77.50;;;;;;10827842;33;20055;-70
2023/10/03 00:16:44;;;;;;;10.77;9.20;;;20.90;77.50;;;;;;10827945;33;20034;-69
2023/10/03 00:22:47;;;;;;;15.05;12.40;;;20.80;77.60;;;;;;10812968;33;20394;-70
2023/10/03 00:28:51;;;;;;;16.83;13.15;;;20.80;77.70;;;;;;10826947;33;20024;-70
2023/10/03 00:34:56;;;;;;;12.95;10.23;;;20.80;77.80;;;;;;10827561;33;20012;-70
2023/10/03 00:40:58;;;;;;;12.10;10.60;;;20.80;77.70;;;;;;10826084;32;20043;-70
2023/10/03 00:47:00;;;;;;;15.85;11.57;;;20.70;77.80;;;;;;10839312;32;20026;-70
2023/10/03 00:53:08;;;;;;;13.62;12.23;;;20.70;77.90;;;;;;10982111;32;20022;-70
2023/10/03 00:59:11;;;;;;;13.93;10.52;;;20.70;77.90;;;;;;10977353;32;20416;-70
2023/10/03 01:05:15;;;;;;;14.32;12.55;;;20.60;78.00;;;;;;10981548;32;20033;-70
2023/10/03 01:11:18;;;;;;;12.23;11.02;;;20.70;78.30;;;;;;10966231;32;20034;-70
2023/10/03 01:17:22;;;;;;;14.38;12.15;;;20.50;78.30;;;;;;10966165;32;20066;-70
2023/10/03 01:23:29;;;;;;;14.27;10.95;;;20.50;78.30;;;;;;10980375;32;20045;-69
2023/10/03 01:29:31;;;;;;;14.40;12.45;;;20.40;78.40;;;;;;10980867;32;20037;-69
2023/10/03 01:35:34;;;;;;;13.73;9.57;;;20.40;78.40;;;;;;10979531;32;20023;-70
2023/10/03 01:41:37;;;;;;;16.37;11.48;;;20.40;78.70;;;;;;10966719;32;20041;-70
2023/10/03 01:47:45;;;;;;;15.23;13.13;;;20.40;79.40;;;;;;10949952;32;20027;-70
2023/10/03 01:53:47;;;;;;;;;;;20.40;79.50;;;;;;10824250;33;20039;-70
2023/10/03 01:59:50;;;;;;;16.25;14.15;;;20.30;79.30;;;;;;10811498;33;19919;-70
2023/10/03 02:05:52;;;;;;;12.88;11.57;;;20.30;79.50;;;;;;10824972;33;20036;-69
2023/10/03 02:11:59;;;;;;;11.07;9.95;;;20.30;79.40;;;;;;10821330;33;20016;-70
2023/10/03 02:18:02;;;;;;;10.38;8.95;;;20.20;79.40;;;;;;10821723;33;20059;-70
2023/10/03 02:24:06;;;;;;;12.35;10.57;;;20.20;80.00;;;;;;10810163;33;20405;-70
2023/10/03 02:30:12;;;;;;;13.00;11.40;;;20.20;80.00;;;;;;10823924;33;20039;-70
2023/10/03 02:36:15;;;;;;;16.17;11.85;;;20.20;79.90;;;;;;10808739;33;20028;-69
2023/10/03 02:42:18;;;;;;;13.98;12.48;;;20.20;80.20;;;;;;10824296;33;20042;-69
2023/10/03 02:48:21;;;;;;;13.23;11.25;;;20.10;80.00;;;;;;10822817;33;20055;-70
2023/10/03 02:54:24;;;;;;;16.20;12.30;;;20.00;79.90;;;;;;10823413;33;20051;-69
2023/10/03 03:00:26;;;;;;;10.65;9.43;;;19.90;79.90;;;;;;10823798;33;20051;-69
2023/10/03 03:06:31;;;;;;;14.27;12.50;;;19.90;79.90;;;;;;10825463;32;20303;-69
2023/10/03 03:12:35;;;;;;;16.75;14.93;;;19.80;79.80;;;;;;10828669;33;20062;-70
2023/10/03 03:18:41;;;;;;;16.45;12.60;;;19.80;80.20;;;;;;10828639;33;20047;-70
2023/10/03 03:24:46;;;;;;;14.52;11.90;;;19.80;80.10;;;;;;10826276;33;20020;-70
2023/10/03 03:30:57;;;;;;;13.45;11.75;;;19.80;80.20;;;;;;10828281;33;20051;-70
2023/10/03 03:37:21;;;;;;;14.05;12.65;;;19.80;80.60;;;;;;10815346;33;20122;-70
2023/10/03 03:43:21;;;;;;;16.77;12.85;;;19.80;80.60;;;;;;10827769;33;20059;-69
2023/10/03 03:49:25;;;;;;;13.32;11.93;;;19.70;80.40;;;;;;10828492;33;20024;-69
2023/10/03 03:55:29;;;;;;;14.27;12.75;;;19.70;80.30;;;;;;10828733;33;20046;-69
2023/10/03 04:01:33;;;;;;;17.30;14.98;;;19.60;80.30;;;;;;10827394;33;20078;-70
2023/10/03 04:07:38;;;;;;;16.50;13.73;;;19.60;80.30;;;;;;10825953;33;20245;-69
2023/10/03 04:13:49;;;;;;;18.08;15.40;;;19.60;80.30;;;;;;10827574;33;20020;-69
2023/10/03 04:19:51;;;;;;;15.77;14.13;;;19.60;80.30;;;;;;10826555;32;20073;-69
2023/10/03 04:25:54;;;;;;;14.25;11.23;;;19.50;80.30;;;;;;10827836;33;20349;-69
2023/10/03 04:31:56;;;;;;;13.70;12.23;;;19.40;80.40;;;;;;10814449;33;20025;-69
2023/10/03 04:37:58;;;;;;;15.93;13.25;;;19.30;80.30;;;;;;10826838;33;20424;-69
2023/10/03 04:44:02;;;;;;;15.82;13.02;;;19.30;80.30;;;;;;10813935;32;20028;-70
2023/10/03 04:50:04;;;;;;;16.25;14.38;;;19.30;80.40;;;;;;10826030;33;20323;-70
2023/10/03 04:56:07;;;;;;;16.45;12.77;;;19.30;80.30;;;;;;10825672;33;20028;-69
2023/10/03 05:02:11;;;;;;;13.25;11.32;;;19.30;80.10;;;;;;10825709;33;20342;-69
2023/10/03 05:08:13;;;;;;;11.82;9.95;;;19.30;80.10;;;;;;10814077;33;20305;-69
2023/10/03 05:14:17;;;;;;;12.52;11.15;;;19.20;80.20;;;;;;10822876;33;20299;-69
2023/10/03 05:20:19;;;;;;;14.95;13.35;;;19.20;80.20;;;;;;10825209;33;20055;-69
2023/10/03 05:26:25;;;;;;;13.23;11.82;;;19.20;80.50;;;;;;10825487;33;20047;-69
2023/10/03 05:32:28;;;;;;;14.43;12.93;;;19.20;80.50;;;;;;10824181;32;20027;-69
2023/10/03 05:38:30;;;;;;;21.10;14.05;;;19.10;80.50;;;;;;10825763;33;20045;-69
2023/10/03 05:44:32;;;;;;;15.50;13.90;;;19.10;80.50;;;;;;10823792;33;20057;-69
2023/10/03 05:50:34;;;;;;;14.52;11.07;;;19.00;80.50;;;;;;10824581;33;20020;-69
2023/10/03 05:56:37;;;;;;;16.60;13.30;;;19.10;80.40;;;;;;10824441;33;20016;-70
2023/10/03 06:02:39;;;;;;;15.98;13.77;;;19.20;80.40;;;;;;10811880;33;20345;-69
2023/10/03 06:08:41;;;;;;;12.57;10.68;;;19.30;80.40;;;;;;10821326;33;20064;-70
2023/10/03 06:14:44;;;;;;;16.27;14.27;;;19.30;80.50;;;;;;10770379;33;20303;-70
2023/10/03 06:20:49;;;;;;;16.37;14.68;;;19.30;80.80;;;;;;10786397;33;20032;-70
2023/10/03 06:26:51;;;;;;;15.10;12.02;;;19.40;80.90;;;;;;10786970;33;20056;-70
2023/10/03 06:32:55;;;;;;;12.85;11.55;;;19.40;80.80;;;;;;10787372;33;20020;-70
2023/10/03 06:39:25;;;;;;;14.05;11.43;;;19.40;80.80;;;;;;10787952;33;20012;-70
2023/10/03 06:45:29;;;;;;;17.42;14.95;;;19.50;80.90;;;;;;10794544;33;20334;-70
2023/10/03 06:51:50;;;;;;;19.95;16.80;;;19.60;81.10;;;;;;10795699;27;20055;-70
2023/10/03 06:57:52;;;;;;;18.80;15.23;;;19.80;81.10;;;;;;10775844;33;20051;-70
2023/10/03 07:03:56;;;;;;;17.00;14.52;;;19.80;81.10;;;;;;10781052;32;20059;-70
2023/10/03 07:10:00;;;;;;;19.65;17.27;;;19.90;81.20;;;;;;10785966;33;20051;-70
2023/10/03 07:16:11;;;;;;;23.33;20.35;;;20.00;81.00;;;;;;10788737;33;20398;-70
2023/10/03 07:22:13;;;;;;;21.15;18.60;;;20.10;80.90;;;;;;10793665;33;20021;-70
2023/10/03 07:28:15;;;;;;;26.83;20.37;;;20.20;80.90;;;;;;10791540;33;20032;-69
2023/10/03 07:34:18;;;;;;;23.30;18.55;;;20.30;80.80;;;;;;10791489;33;20039;-70
2023/10/03 07:40:22;;;;;;;24.20;21.50;;;20.30;80.60;;;;;;10791237;33;20055;-70
2023/10/03 07:46:25;;;;;;;27.15;14.85;;;20.40;80.80;;;;;;10792098;33;20012;-70
2023/10/03 07:52:27;;;;;;;27.85;20.88;;;20.50;80.80;;;;;;10776924;33;20040;-72
2023/10/03 07:58:32;;;;;;;18.58;16.12;;;20.60;81.10;;;;;;10777504;33;20020;-71
2023/10/03 08:04:37;;;;;;;28.12;22.23;;;20.70;81.20;;;;;;10790680;33;20025;-70
2023/10/03 08:10:39;;;;;;;28.80;22.98;;;20.80;81.10;;;;;;10790393;33;20021;-72
2023/10/03 08:16:42;;;;;;;24.40;18.95;;;20.90;80.80;;;;;;10786214;33;20039;-70
2023/10/03 08:22:51;;;;;;;21.87;18.58;;;21.00;80.50;;;;;;10776061;33;20321;-70
2023/10/03 08:29:03;;;;;;;19.85;17.33;;;21.10;80.40;;;;;;10786520;33;20402;-72
2023/10/03 08:35:08;;;;;;;23.12;18.70;;;21.20;80.30;;;;;;10790727;33;20028;-71
2023/10/03 08:41:17;;;;;;;19.67;16.90;;;21.30;79.90;;;;;;10789654;33;20012;-71
2023/10/03 08:47:30;;;;;;;27.55;19.15;;;21.30;79.60;;;;;;10787820;33;20428;-71
2023/10/03 08:53:32;;;;;;;23.98;19.40;;;21.50;79.40;;;;;;10789249;33;20381;-70
2023/10/03 08:59:34;;;;;;;20.05;16.58;;;21.60;79.00;;;;;;10789171;33;20058;-72
2023/10/03 09:05:40;;;;;;;24.52;20.83;;;21.70;78.80;;;;;;10773176;33;20024;-70
2023/10/03 09:11:43;;;;;;;24.92;18.70;;;21.80;78.60;;;;;;10789350;33;20160;-72
2023/10/03 09:17:49;;;;;;;15.13;13.57;;;21.90;78.20;;;;;;10789297;33;20383;-70
2023/10/03 09:24:20;;;;;;;16.58;12.05;;;22.00;77.80;;;;;;10789120;33;20420;-69
2023/10/03 09:30:24;;;;;;;18.37;15.20;;;22.10;77.20;;;;;;10789508;33;20056;-70
2023/10/03 09:36:28;;;;;;;12.70;10.65;;;22.20;77.00;;;;;;10788191;33;20035;-69
2023/10/03 09:42:32;;;;;;;15.50;13.82;;;22.30;76.50;;;;;;10774808;33;20039;-68
2023/10/03 09:48:36;;;;;;;15.73;14.20;;;22.50;76.00;;;;;;10788339;33;20414;-69
2023/10/03 09:54:39;;;;;;;17.48;13.27;;;22.60;75.60;;;;;;10787427;33;20050;-70
2023/10/03 10:00:51;;;;;;;15.38;12.90;;;22.80;75.30;;;;;;10787884;33;20008;-69
2023/10/03 10:07:16;;;;;;;15.40;12.57;;;22.90;74.50;;;;;;10786979;33;20047;-69
2023/10/03 10:13:21;;;;;;;12.13;10.23;;;23.00;74.10;;;;;;10788431;33;20371;-70
2023/10/03 10:19:24;;;;;;;10.35;8.07;;;23.20;73.80;;;;;;10794455;33;20042;-70
2023/10/03 10:25:43;;;;;;;10.65;7.62;;;23.30;73.30;;;;;;10779933;33;20051;-68
2023/10/03 10:31:49;;;;;;;;;;;23.50;72.60;;;;;;10794156;33;20024;-69
2023/10/03 10:37:52;;;;;;;19.70;10.13;;;23.60;72.20;;;;;;10767575;33;19946;-69
2023/10/03 10:44:23;;;;;;;15.95;11.70;;;23.80;71.80;;;;;;10794384;33;20021;-70
2023/10/03 10:50:28;;;;;;;12.57;8.00;;;24.00;71.30;;;;;;10775439;33;20033;-69
2023/10/03 10:57:01;;;;;;;11.52;7.05;;;24.30;71.00;;;;;;10757270;33;20040;-68
2023/10/03 11:03:07;;;;;;;11.95;7.97;;;24.60;69.70;;;;;;10756348;33;20021;-69
2023/10/03 11:09:12;;;;;;;10.50;7.12;;;24.80;68.70;;;;;;10756354;33;20319;-69
2023/10/03 11:15:15;;;;;;;11.75;8.68;;;25.00;67.70;;;;;;10740943;33;20320;-69
2023/10/03 11:21:18;;;;;;;22.35;9.85;;;25.30;67.10;;;;;;10755901;33;20025;-69
2023/10/03 11:27:28;;;;;;;10.45;7.90;;;25.50;66.30;;;;;;10741069;33;20044;-69
2023/10/03 11:33:46;;;;;;;8.95;7.70;;;25.60;65.90;;;;;;10755168;33;20021;-68
2023/10/03 11:39:48;;;;;;;10.00;6.35;;;25.80;65.60;;;;;;10756081;33;20051;-68
2023/10/03 11:45:57;;;;;;;17.02;8.52;;;25.90;65.00;;;;;;10755308;33;20327;-68
2023/10/03 11:51:59;;;;;;;11.55;6.43;;;25.90;63.80;;;;;;10754112;33;20426;-69
2023/10/03 11:58:02;;;;;;;7.20;5.50;;;25.90;63.90;;;;;;10755353;33;20024;-69
2023/10/03 12:04:04;;;;;;;11.52;6.82;;;26.00;63.60;;;;;;10740888;32;20074;-69
2023/10/03 12:10:12;;;;;;;9.18;6.85;;;25.90;63.20;;;;;;10755292;33;20347;-69
2023/10/03 12:16:15;;;;;;;8.48;6.00;;;25.80;62.50;;;;;;10754319;33;20028;-69
2023/10/03 12:22:18;;;;;;;15.02;11.77;;;25.80;62.60;;;;;;10755126;33;20098;-69
2023/10/03 12:28:21;;;;;;;9.75;8.00;;;25.80;62.10;;;;;;10785711;33;20418;-69
2023/10/03 12:34:25;;;;;;;9.25;6.93;;;25.80;61.70;;;;;;10790977;33;20413;-68
2023/10/03 12:40:30;;;;;;;12.00;8.40;;;25.70;62.10;;;;;;10789559;33;20039;-70
2023/10/03 12:46:32;;;;;;;12.90;10.60;;;25.80;62.10;;;;;;10789711;33;20060;-69
2023/10/03 12:52:35;;;;;;;13.65;8.73;;;25.80;61.50;;;;;;10789232;33;20036;-69
2023/10/03 12:58:38;;;;;;;10.15;7.60;;;25.80;61.60;;;;;;10789193;33;20047;-69
2023/10/03 13:04:41;;;;;;;10.55;7.82;;;25.80;61.60;;;;;;10789680;33;20016;-68
2023/10/03 13:10:44;;;;;;;9.40;7.87;;;25.90;61.80;;;;;;10786780;33;20051;-69
2023/10/03 13:16:47;;;;;;;10.63;7.57;;;25.90;61.40;;;;;;10788775;33;20330;-69
2023/10/03 13:22:49;;;;;;;10.05;8.18;;;25.90;61.70;;;;;;10776848;33;20009;-70
2023/10/03 13:28:52;;;;;;;10.43;9.25;;;25.90;63.40;;;;;;10775224;33;20059;-70
2023/10/03 13:34:54;;;;;;;9.45;7.85;;;25.90;63.80;;;;;;10788739;33;20394;-69
2023/10/03 13:40:56;;;;;;;15.65;11.68;;;25.80;64.80;;;;;;10788062;33;20028;-70
2023/10/03 13:46:59;;;;;;;11.23;9.77;;;25.80;65.60;;;;;;10788787;33;20362;-70
2023/10/03 13:53:04;;;;;;;8.55;7.28;;;25.80;65.60;;;;;;10773711;33;20040;-70
2023/10/03 13:59:07;;;;;;;10.00;8.30;;;25.80;66.00;;;;;;10787884;33;20021;-69
2023/10/03 14:05:09;;;;;;;12.35;10.45;;;25.90;66.50;;;;;;10773839;33;20051;-70
2023/10/03 14:11:22;;;;;;;10.63;9.50;;;25.90;66.40;;;;;;10779907;33;20032;-71
2023/10/03 14:17:24;;;;;;;18.20;11.68;;;25.90;66.70;;;;;;10749749;33;20056;-69
2023/10/03 14:23:27;;;;;;;10.85;9.23;;;25.90;67.30;;;;;;10751058;33;20387;-69
2023/10/03 14:29:29;;;;;;;8.80;6.37;;;26.00;67.20;;;;;;10750400;33;20055;-68
2023/10/03 14:35:31;;;;;;;10.45;7.43;;;26.00;67.00;;;;;;10746497;33;20021;-70
2023/10/03 14:41:33;;;;;;;10.57;9.43;;;26.10;66.80;;;;;;10750915;33;20457;-70
2023/10/03 14:47:35;;;;;;;14.40;7.12;;;26.20;66.90;;;;;;10794786;27;20053;-69
2023/10/03 14:53:38;;;;;;;21.80;7.35;;;26.10;66.50;;;;;;10976380;32;20049;-69
2023/10/03 14:59:41;;;;;;;9.85;7.60;;;26.10;66.60;;;;;;10978887;32;20022;-69
2023/10/03 15:05:46;;;;;;;11.25;8.27;;;26.20;66.30;;;;;;10972779;32;20014;-70
2023/10/03 15:11:48;;;;;;;9.18;7.25;;;26.20;66.30;;;;;;10971042;32;20026;-70
2023/10/03 15:17:52;;;;;;;11.80;6.75;;;26.10;66.60;;;;;;10985018;32;20019;-70
2023/10/03 15:23:54;;;;;;;11.18;6.43;;;26.40;66.30;;;;;;10970523;32;20068;-70
2023/10/03 15:29:59;;;;;;;9.40;7.80;;;26.70;65.50;;;;;;10985045;32;20408;-69
2023/10/03 15:36:01;;;;;;;8.88;6.15;;;26.70;65.40;;;;;;10984841;32;20022;-69
2023/10/03 15:42:03;;;;;;;11.35;7.25;;;27.00;65.20;;;;;;10984656;32;20010;-70
2023/10/03 15:48:06;;;;;;;9.38;6.57;;;26.90;65.30;;;;;;10970851;32;20027;-71
2023/10/03 15:54:08;;;;;;;8.32;5.97;;;26.60;66.30;;;;;;10983609;32;20019;-70
2023/10/03 16:00:11;;;;;;;10.10;6.95;;;26.40;66.90;;;;;;10984962;32;20023;-69
2023/10/03 16:06:14;;;;;;;8.73;6.75;;;26.30;67.00;;;;;;10984663;32;20077;-69
2023/10/03 16:12:19;;;;;;;13.10;6.22;;;26.20;67.00;;;;;;10978830;32;20438;-69
2023/10/03 16:18:21;;;;;;;8.60;6.85;;;25.90;67.30;;;;;;10983974;32;20034;-69
2023/10/03 16:24:23;;;;;;;7.57;4.85;;;25.60;67.30;;;;;;10982439;32;20045;-69
2023/10/03 16:30:25;;;;;;;7.40;5.40;;;25.30;67.70;;;;;;10982208;32;20019;-69
2023/10/03 16:36:27;;;;;;;7.32;5.40;;;25.10;67.70;;;;;;10968611;32;20019;-70
2023/10/03 16:42:29;;;;;;;7.82;5.40;;;24.90;68.00;;;;;;10982288;32;20041;-69
2023/10/03 16:48:32;;;;;;;8.48;6.15;;;24.80;68.10;;;;;;10968896;32;20049;-69
2023/10/03 16:54:35;;;;;;;8.63;5.75;;;24.60;68.20;;;;;;10982010;32;20369;-70
2023/10/03 17:00:39;;;;;;;8.20;6.50;;;24.50;68.50;;;;;;10981157;32;20026;-70
2023/10/03 17:06:44;;;;;;;14.63;7.18;;;24.30;68.70;;;;;;10980891;32;20019;-69
2023/10/03 17:12:47;;;;;;;22.40;7.75;;;24.30;69.00;;;;;;10981160;32;20034;-70
2023/10/03 17:18:51;;;;;;;11.65;6.05;;;24.20;69.30;;;;;;10980465;32;20018;-70
2023/10/03 17:24:53;;;;;;;8.85;7.10;;;24.00;69.50;;;;;;10979826;32;20019;-70
2023/10/03 17:30:56;;;;;;;8.73;6.93;;;23.90;69.90;;;;;;10979983;32;20033;-70
2023/10/03 17:36:58;;;;;;;9.90;5.68;;;23.90;69.90;;;;;;10980443;32;20330;-69
2023/10/03 17:43:00;;;;;;;8.82;6.75;;;23.80;70.20;;;;;;10980230;32;20030;-70
2023/10/03 17:49:04;;;;;;;10.15;7.07;;;23.80;70.30;;;;;;10966021;32;20022;-70
2023/10/03 17:55:08;;;;;;;9.50;7.12;;;23.80;70.30;;;;;;10975911;32;20423;-70
2023/10/03 18:01:23;;;;;;;10.73;7.57;;;23.80;70.30;;;;;;10979063;32;20006;-70
2023/10/03 18:07:27;;;;;;;8.85;7.28;;;23.80;70.40;;;;;;10976949;32;20019;-70
2023/10/03 18:13:29;;;;;;;11.63;6.12;;;23.70;70.60;;;;;;10970609;32;20049;-70
2023/10/03 18:19:33;;;;;;;10.40;8.40;;;23.60;70.70;;;;;;10976772;32;20046;-70
2023/10/03 18:25:38;;;;;;;18.50;8.38;;;23.60;70.80;;;;;;10974885;32;20108;-70
2023/10/03 18:31:40;;;;;;;9.18;6.20;;;23.50;71.00;;;;;;10968369;32;20053;-70
2023/10/03 18:37:42;;;;;;;9.88;6.85;;;23.40;71.20;;;;;;10939957;32;20405;-70
2023/10/03 18:43:45;;;;;;;13.30;7.72;;;23.30;71.40;;;;;;10943583;32;20420;-70
2023/10/03 18:49:49;;;;;;;11.85;9.00;;;23.30;71.60;;;;;;10942075;32;20030;-70
2023/10/03 18:55:52;;;;;;;9.48;7.12;;;23.30;71.60;;;;;;10943414;32;20020;-70
2023/10/03 19:01:55;;;;;;;9.07;6.90;;;23.30;71.90;;;;;;10943177;32;20055;-70
2023/10/03 19:07:57;;;;;;;10.27;7.87;;;23.10;72.60;;;;;;10942844;32;20042;-70
2023/10/03 19:13:59;;;;;;;10.15;8.73;;;23.00;72.80;;;;;;10943057;32;20019;-70
2023/10/03 19:20:03;;;;;;;10.77;9.48;;;23.00;72.80;;;;;;10945797;32;20011;-70
2023/10/03 19:26:07;;;;;;;14.23;9.60;;;23.00;73.00;;;;;;10980042;32;20053;-70
2023/10/03 19:32:10;;;;;;;9.73;8.10;;;22.90;73.00;;;;;;10984316;32;20011;-70
2023/10/03 19:38:13;;;;;;;10.63;8.23;;;22.90;72.90;;;;;;10952387;32;20042;-70
2023/10/03 19:44:16;;;;;;;9.77;7.65;;;22.90;73.20;;;;;;10944091;32;20022;-70
2023/10/03 19:50:19;;;;;;;12.98;9.15;;;22.80;73.50;;;;;;10950402;32;20034;-70
2023/10/03 19:56:25;;;;;;;13.32;8.80;;;22.80;73.70;;;;;;10942174;32;20023;-70
2023/10/03 20:02:27;;;;;;;11.68;9.90;;;22.70;74.10;;;;;;10940255;32;20031;-69
2023/10/03 20:08:29;;;;;;;10.50;8.88;;;22.70;74.00;;;;;;10966025;32;20041;-70
2023/10/03 20:14:31;;;;;;;14.02;10.68;;;22.60;74.20;;;;;;10982278;32;20010;-70
2023/10/03 20:20:34;;;;;;;12.18;9.88;;;22.50;74.90;;;;;;10978553;32;20064;-70
2023/10/03 20:26:36;;;;;;;11.20;8.82;;;22.40;75.40;;;;;;10984451;32;20023;-70
2023/10/03 20:32:39;;;;;;;11.10;9.75;;;22.40;75.40;;;;;;10983602;32;20423;-70
2023/10/03 20:38:42;;;;;;;12.98;10.77;;;22.40;75.50;;;;;;10982073;32;20042;-70
2023/10/03 20:44:44;;;;;;;16.35;12.35;;;22.30;75.50;;;;;;10982850;32;20069;-70
2023/10/03 20:50:46;;;;;;;12.60;9.88;;;22.30;75.60;;;;;;10977832;32;20053;-70
2023/10/03 20:56:49;;;;;;;14.38;12.43;;;22.30;75.60;;;;;;10967634;32;20057;-70
2023/10/03 21:02:51;;;;;;;21.83;10.93;;;22.30;75.60;;;;;;10981003;32;20019;-70
2023/10/03 21:08:54;;;;;;;18.83;14.13;;;22.30;75.70;;;;;;10978290;32;20060;-70
2023/10/03 21:14:56;;;;;;;14.45;11.65;;;22.20;75.70;;;;;;10963799;32;20025;-70
2023/10/03 21:20:58;;;;;;;13.77;11.63;;;22.20;75.70;;;;;;10981944;32;20018;-70
2023/10/03 21:27:01;;;;;;;15.68;13.40;;;22.10;76.40;;;;;;10981505;32;20045;-70
2023/10/03 21:33:04;;;;;;;14.05;12.55;;;22.10;76.40;;;;;;10980629;32;20006;-70
2023/10/03 21:39:06;;;;;;;15.73;12.65;;;22.00;76.50;;;;;;10977093;32;20306;-70
2023/10/03 21:45:10;;;;;;;14.35;12.60;;;22.00;76.40;;;;;;10980273;32;20427;-70
2023/10/03 21:51:12;;;;;;;12.43;10.85;;;22.00;76.60;;;;;;10965450;32;20283;-70
2023/10/03 21:57:15;;;;;;;13.75;10.70;;;22.00;76.70;;;;;;10980126;32;20069;-69
2023/10/03 22:03:18;;;;;;;13.15;11.25;;;21.90;76.70;;;;;;10980049;32;20022;-70
2023/10/03 22:09:20;;;;;;;16.75;14.77;;;21.90;76.70;;;;;;10980166;32;20018;-70
2023/10/03 22:15:22;;;;;;;15.90;13.50;;;21.90;76.80;;;;;;10990234;32;20049;-70
2023/10/03 22:21:24;;;;;;;17.45;15.05;;;21.90;77.20;;;;;;10965350;32;20069;-70
2023/10/03 22:27:26;;;;;;;19.52;16.08;;;21.80;77.20;;;;;;10991663;32;20014;-70
2023/10/03 22:33:29;;;;;;;17.10;13.45;;;21.80;77.20;;;;;;10991526;32;20019;-70
2023/10/03 22:39:31;;;;;;;17.10;14.27;;;21.80;77.10;;;;;;10991662;32;20049;-70
2023/10/03 22:45:33;;;;;;;16.95;14.63;;;21.80;77.20;;;;;;10991453;32;20006;-70
2023/10/03 22:51:36;;;;;;;15.45;12.68;;;21.80;77.30;;;;;;10742641;27;7774879;-70
2023/10/03 22:57:39;;;;;;;14.77;11.95;;;21.80;77.20;;;;;;10975495;32;20294;-70
2023/10/03 23:03:41;;;;;;;16.10;14.43;;;21.80;77.30;;;;;;10991153;32;20015;-70
2023/10/03 23:09:44;;;;;;;13.52;11.02;;;21.70;77.40;;;;;;10992137;32;20380;-70
2023/10/03 23:15:46;;;;;;;17.65;15.70;;;21.70;77.90;;;;;;10979140;32;20014;-70
2023/10/03 23:21:48;;;;;;;18.17;15.65;;;21.70;78.00;;;;;;10988347;32;20042;-74
2023/10/03 23:27:50;;;;;;;17.17;13.48;;;21.70;78.00;;;;;;10985306;32;20057;-74
2023/10/03 23:33:52;;;;;;;18.73;16.10;;;21.70;78.20;;;;;;10984435;32;20015;-74
2023/10/03 23:39:54;;;;;;;18.30;15.18;;;21.70;78.40;;;;;;10984906;32;20419;-74
2023/10/03 23:46:09;;;;;;;13.70;12.13;;;21.60;78.20;;;;;;10957327;32;20030;-74
2023/10/03 23:52:14;;;;;;;14.60;12.98;;;21.50;78.10;;;;;;10983768;32;20057;-74
2023/10/03 23:58:18;;;;;;;19.35;15.05;;;21.40;78.20;;;;;;10984956;32;20045;-74
